Terminal Aerodrome Forecast
Issued by NWS Omaha/Valley, NE

Home | Current Version | Previous Version | Text Only | Print | Product List | Glossary On
Versions: 1 2 3 4 5 6 7 8 9 10 11 12 13 14 15 16 17 18 19 20 21 22
000
FTUS43 KOAX 281120
TAFOMA
TAF
KOMA 281120Z 2812/2912 06012KT 5SM -RA OVC045
     FM281300 06012KT 4SM -RA BR OVC025
     FM281500 05013G21KT 3SM RA BR OVC010
     FM281700 04012G22KT 4SM -RA BR OVC008
     FM282200 03013KT P6SM OVC008
     FM291100 02015G23KT P6SM OVC025=

USA.gov is the U.S. government's official web portal to all federal, state and local government web resources and services.